Britney Lee — WDC2895 — position and weather

sailwx.info

Track history (hours):
 
Tides and Currents Weather Stations Pressure Air Temp Water Temp Dewpoint Dewpoint Depression Visibility Wind Speed Wind Dir Waves Ship Positions

Britney Lee

Owner: Western Rivers Boat Management, Inc., Paducah, KY. More information available from US FCC via Universal Licensing System and Coast Guard Vessel Documentation Center.

Last reported at 2017-Feb-04 08:23 UTC. Time now 2017-Feb-20 22:30 UTC.
Position N 32°44' W 091°04'.
Warning: this ship's position is 16 days out of date.

Length 44 m; draft 3 m.

Type: Tow > 200 m length. MMSI: 367129650.

Date/timePositionNaut miles runAvg speedWind from/ knotsBaromVisibWave heightAir tempDewpointWater temp
2017-Feb-04 08:23N 32°44' W 091°04'7 2.2
2017-Feb-04 05:10N 32°38' W 091°09'2 3.4
2017-Feb-04 04:33N 32°36' W 091°09'3 2.9
2017-Feb-04 03:33N 32°34' W 091°06'4 3.6
2017-Feb-04 02:33N 32°30' W 091°07'4 3.8
2017-Feb-04 01:33N 32°27' W 091°05'4 4.5
2017-Feb-04 00:33N 32°25' W 090°60'4 3.7
2017-Feb-03 23:33N 32°22' W 091°00'3 3.2
2017-Feb-03 22:33N 32°21' W 090°56'2 2.2
2017-Feb-03 21:33N 32°20' W 090°54'3 2.7
2017-Feb-03 20:33N 32°18' W 090°56'0 0.0
2017-Feb-03 19:33N 32°18' W 090°56'0 0.2
2017-Feb-03 18:33N 32°17' W 090°56'3 3.1
2017-Feb-03 17:33N 32°15' W 090°59'4 3.5
2017-Feb-03 16:33N 32°12' W 090°59'4 3.5
2017-Feb-03 15:33N 32°08' W 091°00'3 2.7
2017-Feb-03 14:33N 32°08' W 091°03'3 2.6
2017-Feb-03 13:33N 32°07' W 091°06'4 3.8
2017-Feb-03 12:23N 32°03' W 091°04'4 3.9
2017-Feb-03 11:20N 31°59' W 091°06'  
2017-Jan-26 14:30N 32°01' W 091°05'7 7.1
2017-Jan-26 13:33N 32°07' W 091°07'6 6.1
2017-Jan-26 12:33N 32°10' W 091°00'8 7.9
2017-Jan-26 11:33N 32°17' W 090°57'4 4.4
2017-Jan-26 10:33N 32°21' W 090°59'6 6.3
2017-Jan-26 09:33N 32°26' W 091°03'7 6.8
2017-Jan-26 08:33N 32°32' W 091°06'7 7.2
2017-Jan-26 07:33N 32°39' W 091°09'  
Track history (hours):
 
Tides and Currents Weather Stations Pressure Air Temp Water Temp Dewpoint Dewpoint Depression Visibility Wind Speed Wind Dir Waves Ship Positions

Britney Lee

Owner: Western Rivers Boat Management, Inc., Paducah, KY. More information available from US FCC via Universal Licensing System and Coast Guard Vessel Documentation Center.

Last reported at 2017-Feb-04 08:23 UTC. Time now 2017-Feb-20 22:30 UTC.
Position N 32°44' W 091°04'.
Warning: this ship's position is 16 days out of date.

Length 44 m; draft 3 m.

Type: Tow > 200 m length. MMSI: 367129650.

Date/timePositionNaut miles runAvg speedWind from/ knotsBaromVisibWave heightAir tempDewpointWater temp
2017-Feb-04 08:23N 32°44' W 091°04'7 2.2
2017-Feb-04 05:10N 32°38' W 091°09'2 3.4
2017-Feb-04 04:33N 32°36' W 091°09'3 2.9
2017-Feb-04 03:33N 32°34' W 091°06'4 3.6
2017-Feb-04 02:33N 32°30' W 091°07'4 3.8
2017-Feb-04 01:33N 32°27' W 091°05'4 4.5
2017-Feb-04 00:33N 32°25' W 090°60'4 3.7
2017-Feb-03 23:33N 32°22' W 091°00'3 3.2
2017-Feb-03 22:33N 32°21' W 090°56'2 2.2
2017-Feb-03 21:33N 32°20' W 090°54'3 2.7
2017-Feb-03 20:33N 32°18' W 090°56'0 0.0
2017-Feb-03 19:33N 32°18' W 090°56'0 0.2
2017-Feb-03 18:33N 32°17' W 090°56'3 3.1
2017-Feb-03 17:33N 32°15' W 090°59'4 3.5
2017-Feb-03 16:33N 32°12' W 090°59'4 3.5
2017-Feb-03 15:33N 32°08' W 091°00'3 2.7
2017-Feb-03 14:33N 32°08' W 091°03'3 2.6
2017-Feb-03 13:33N 32°07' W 091°06'4 3.8
2017-Feb-03 12:23N 32°03' W 091°04'4 3.9
2017-Feb-03 11:20N 31°59' W 091°06'  
2017-Jan-26 14:30N 32°01' W 091°05'7 7.1
2017-Jan-26 13:33N 32°07' W 091°07'6 6.1
2017-Jan-26 12:33N 32°10' W 091°00'8 7.9
2017-Jan-26 11:33N 32°17' W 090°57'4 4.4
2017-Jan-26 10:33N 32°21' W 090°59'6 6.3
2017-Jan-26 09:33N 32°26' W 091°03'7 6.8
2017-Jan-26 08:33N 32°32' W 091°06'7 7.2
2017-Jan-26 07:33N 32°39' W 091°09'  

Dump ship's entire track history